sensor_id;sensor_type;location;lat;lon;timestamp;P1;durP1;ratioP1;P2;durP2;ratioP2
11203;SDS011;5659;49.408;11.116;2023-12-20T00:01:47;9.20;;;6.17;;
11203;SDS011;5659;49.408;11.116;2023-12-20T00:04:14;9.57;;;6.77;;
11203;SDS011;5659;49.408;11.116;2023-12-20T00:06:40;11.30;;;6.60;;
11203;SDS011;5659;49.408;11.116;2023-12-20T00:09:06;12.77;;;6.50;;
11203;SDS011;5659;49.408;11.116;2023-12-20T00:11:32;9.07;;;6.27;;
11203;SDS011;5659;49.408;11.116;2023-12-20T00:13:58;11.73;;;6.87;;
11203;SDS011;5659;49.408;11.116;2023-12-20T00:16:24;10.50;;;6.60;;
11203;SDS011;5659;49.408;11.116;2023-12-20T00:18:50;11.97;;;7.20;;
11203;SDS011;5659;49.408;11.116;2023-12-20T00:21:16;11.27;;;6.23;;
11203;SDS011;5659;49.408;11.116;2023-12-20T00:23:42;8.37;;;6.60;;
11203;SDS011;5659;49.408;11.116;2023-12-20T00:26:08;11.23;;;6.33;;
11203;SDS011;5659;49.408;11.116;2023-12-20T00:28:34;11.03;;;6.40;;
11203;SDS011;5659;49.408;11.116;2023-12-20T00:31:00;9.03;;;6.77;;
11203;SDS011;5659;49.408;11.116;2023-12-20T00:33:26;12.13;;;6.63;;
11203;SDS011;5659;49.408;11.116;2023-12-20T00:35:52;12.13;;;6.77;;
11203;SDS011;5659;49.408;11.116;2023-12-20T00:38:18;12.47;;;7.10;;
11203;SDS011;5659;49.408;11.116;2023-12-20T00:40:43;14.43;;;6.97;;
11203;SDS011;5659;49.408;11.116;2023-12-20T00:43:09;11.50;;;6.37;;
11203;SDS011;5659;49.408;11.116;2023-12-20T00:45:35;16.30;;;7.03;;
11203;SDS011;5659;49.408;11.116;2023-12-20T00:48:02;11.10;;;6.83;;
11203;SDS011;5659;49.408;11.116;2023-12-20T00:50:28;11.57;;;6.70;;
11203;SDS011;5659;49.408;11.116;2023-12-20T00:52:54;12.00;;;6.80;;
11203;SDS011;5659;49.408;11.116;2023-12-20T00:55:20;7.53;;;5.80;;
11203;SDS011;5659;49.408;11.116;2023-12-20T00:57:46;9.70;;;5.67;;
11203;SDS011;5659;49.408;11.116;2023-12-20T01:00:12;10.73;;;6.20;;
11203;SDS011;5659;49.408;11.116;2023-12-20T01:02:38;10.80;;;6.20;;
11203;SDS011;5659;49.408;11.116;2023-12-20T01:05:04;12.03;;;6.73;;
11203;SDS011;5659;49.408;11.116;2023-12-20T01:07:32;12.60;;;6.20;;
11203;SDS011;5659;49.408;11.116;2023-12-20T01:09:58;13.17;;;6.20;;
11203;SDS011;5659;49.408;11.116;2023-12-20T01:12:24;13.87;;;6.30;;
11203;SDS011;5659;49.408;11.116;2023-12-20T01:14:50;11.23;;;6.23;;
11203;SDS011;5659;49.408;11.116;2023-12-20T01:17:15;10.70;;;6.03;;
11203;SDS011;5659;49.408;11.116;2023-12-20T01:19:41;6.60;;;5.10;;
11203;SDS011;5659;49.408;11.116;2023-12-20T01:22:07;9.47;;;5.90;;
11203;SDS011;5659;49.408;11.116;2023-12-20T01:24:33;8.93;;;5.23;;
11203;SDS011;5659;49.408;11.116;2023-12-20T01:26:59;5.97;;;4.40;;
11203;SDS011;5659;49.408;11.116;2023-12-20T01:29:25;7.83;;;4.77;;
11203;SDS011;5659;49.408;11.116;2023-12-20T01:31:51;6.93;;;4.63;;
11203;SDS011;5659;49.408;11.116;2023-12-20T01:34:17;9.63;;;4.10;;
11203;SDS011;5659;49.408;11.116;2023-12-20T01:36:43;4.90;;;4.03;;
11203;SDS011;5659;49.408;11.116;2023-12-20T01:39:09;6.03;;;4.50;;
11203;SDS011;5659;49.408;11.116;2023-12-20T01:41:35;6.73;;;4.47;;
11203;SDS011;5659;49.408;11.116;2023-12-20T01:44:01;4.37;;;3.97;;
11203;SDS011;5659;49.408;11.116;2023-12-20T01:46:27;7.50;;;3.50;;
11203;SDS011;5659;49.408;11.116;2023-12-20T01:48:53;4.73;;;3.17;;
11203;SDS011;5659;49.408;11.116;2023-12-20T01:51:19;5.07;;;3.17;;
11203;SDS011;5659;49.408;11.116;2023-12-20T01:53:45;5.17;;;3.23;;
11203;SDS011;5659;49.408;11.116;2023-12-20T01:56:12;5.13;;;2.70;;
11203;SDS011;5659;49.408;11.116;2023-12-20T01:58:39;3.50;;;2.80;;
11203;SDS011;5659;49.408;11.116;2023-12-20T02:01:07;3.77;;;2.60;;
11203;SDS011;5659;49.408;11.116;2023-12-20T02:03:33;2.60;;;2.40;;
11203;SDS011;5659;49.408;11.116;2023-12-20T02:06:01;4.20;;;2.50;;
11203;SDS011;5659;49.408;11.116;2023-12-20T02:08:27;3.93;;;2.53;;
11203;SDS011;5659;49.408;11.116;2023-12-20T02:10:53;4.33;;;2.90;;
11203;SDS011;5659;49.408;11.116;2023-12-20T02:13:20;3.27;;;2.50;;
11203;SDS011;5659;49.408;11.116;2023-12-20T02:15:46;3.83;;;2.30;;
11203;SDS011;5659;49.408;11.116;2023-12-20T02:18:12;3.23;;;2.23;;
11203;SDS011;5659;49.408;11.116;2023-12-20T02:20:40;2.80;;;2.00;;
11203;SDS011;5659;49.408;11.116;2023-12-20T02:23:06;3.50;;;2.50;;
11203;SDS011;5659;49.408;11.116;2023-12-20T02:25:32;2.67;;;2.00;;
11203;SDS011;5659;49.408;11.116;2023-12-20T02:27:58;2.57;;;1.90;;
11203;SDS011;5659;49.408;11.116;2023-12-20T02:30:24;6.27;;;2.00;;
11203;SDS011;5659;49.408;11.116;2023-12-20T02:32:50;2.13;;;1.80;;
11203;SDS011;5659;49.408;11.116;2023-12-20T02:35:17;1.90;;;1.70;;
11203;SDS011;5659;49.408;11.116;2023-12-20T02:37:43;1.97;;;1.70;;
11203;SDS011;5659;49.408;11.116;2023-12-20T02:40:09;4.37;;;1.90;;
11203;SDS011;5659;49.408;11.116;2023-12-20T02:42:35;1.60;;;1.50;;
11203;SDS011;5659;49.408;11.116;2023-12-20T02:45:01;1.70;;;1.60;;
11203;SDS011;5659;49.408;11.116;2023-12-20T02:47:27;2.53;;;1.50;;
11203;SDS011;5659;49.408;11.116;2023-12-20T02:49:54;1.40;;;1.30;;
11203;SDS011;5659;49.408;11.116;2023-12-20T02:52:21;1.40;;;1.30;;
11203;SDS011;5659;49.408;11.116;2023-12-20T02:54:47;1.53;;;1.43;;
11203;SDS011;5659;49.408;11.116;2023-12-20T02:57:13;2.03;;;1.37;;
11203;SDS011;5659;49.408;11.116;2023-12-20T02:59:39;2.17;;;1.40;;
11203;SDS011;5659;49.408;11.116;2023-12-20T03:02:05;1.60;;;1.50;;
11203;SDS011;5659;49.408;11.116;2023-12-20T03:04:31;1.60;;;1.50;;
11203;SDS011;5659;49.408;11.116;2023-12-20T03:06:56;1.43;;;1.30;;
11203;SDS011;5659;49.408;11.116;2023-12-20T03:09:22;4.87;;;1.47;;
11203;SDS011;5659;49.408;11.116;2023-12-20T03:11:48;3.23;;;1.40;;
11203;SDS011;5659;49.408;11.116;2023-12-20T03:14:14;1.50;;;1.30;;
11203;SDS011;5659;49.408;11.116;2023-12-20T03:16:40;1.40;;;1.30;;
11203;SDS011;5659;49.408;11.116;2023-12-20T03:19:06;2.87;;;1.37;;
11203;SDS011;5659;49.408;11.116;2023-12-20T03:21:32;1.13;;;1.10;;
11203;SDS011;5659;49.408;11.116;2023-12-20T03:23:58;1.90;;;1.60;;
11203;SDS011;5659;49.408;11.116;2023-12-20T03:26:24;1.50;;;1.30;;
11203;SDS011;5659;49.408;11.116;2023-12-20T03:28:50;1.60;;;1.50;;
11203;SDS011;5659;49.408;11.116;2023-12-20T03:31:17;1.40;;;1.20;;
11203;SDS011;5659;49.408;11.116;2023-12-20T03:33:43;1.40;;;1.30;;
11203;SDS011;5659;49.408;11.116;2023-12-20T03:36:09;1.40;;;1.30;;
11203;SDS011;5659;49.408;11.116;2023-12-20T03:38:34;1.63;;;1.30;;
11203;SDS011;5659;49.408;11.116;2023-12-20T03:41:00;1.53;;;1.43;;
11203;SDS011;5659;49.408;11.116;2023-12-20T03:43:26;1.60;;;1.50;;
11203;SDS011;5659;49.408;11.116;2023-12-20T03:45:52;1.70;;;1.60;;
11203;SDS011;5659;49.408;11.116;2023-12-20T03:48:18;2.07;;;1.97;;
11203;SDS011;5659;49.408;11.116;2023-12-20T03:50:44;1.50;;;1.40;;
11203;SDS011;5659;49.408;11.116;2023-12-20T03:53:10;1.50;;;1.40;;
11203;SDS011;5659;49.408;11.116;2023-12-20T03:55:36;1.93;;;1.80;;
11203;SDS011;5659;49.408;11.116;2023-12-20T03:58:02;1.50;;;1.40;;
11203;SDS011;5659;49.408;11.116;2023-12-20T04:00:28;1.60;;;1.50;;
11203;SDS011;5659;49.408;11.116;2023-12-20T04:02:54;2.67;;;1.83;;
11203;SDS011;5659;49.408;11.116;2023-12-20T04:05:20;4.20;;;1.80;;
11203;SDS011;5659;49.408;11.116;2023-12-20T04:07:46;2.00;;;1.80;;
11203;SDS011;5659;49.408;11.116;2023-12-20T04:10:12;2.90;;;1.87;;
11203;SDS011;5659;49.408;11.116;2023-12-20T04:12:38;3.40;;;2.00;;
11203;SDS011;5659;49.408;11.116;2023-12-20T04:15:04;3.47;;;2.10;;
11203;SDS011;5659;49.408;11.116;2023-12-20T04:17:34;2.00;;;1.90;;
11203;SDS011;5659;49.408;11.116;2023-12-20T04:20:00;2.37;;;2.17;;
11203;SDS011;5659;49.408;11.116;2023-12-20T04:22:26;2.30;;;2.10;;
11203;SDS011;5659;49.408;11.116;2023-12-20T04:24:52;1.90;;;1.80;;
11203;SDS011;5659;49.408;11.116;2023-12-20T04:27:18;2.83;;;2.20;;
11203;SDS011;5659;49.408;11.116;2023-12-20T04:29:44;2.80;;;2.47;;
11203;SDS011;5659;49.408;11.116;2023-12-20T04:32:09;2.90;;;2.37;;
11203;SDS011;5659;49.408;11.116;2023-12-20T04:34:36;2.43;;;2.23;;
11203;SDS011;5659;49.408;11.116;2023-12-20T04:37:02;2.70;;;2.50;;
11203;SDS011;5659;49.408;11.116;2023-12-20T04:39:28;2.33;;;2.13;;
11203;SDS011;5659;49.408;11.116;2023-12-20T04:41:54;3.07;;;2.63;;
11203;SDS011;5659;49.408;11.116;2023-12-20T04:44:20;2.60;;;2.40;;
11203;SDS011;5659;49.408;11.116;2023-12-20T04:46:46;3.97;;;2.50;;
11203;SDS011;5659;49.408;11.116;2023-12-20T04:49:12;3.00;;;2.70;;
11203;SDS011;5659;49.408;11.116;2023-12-20T04:51:38;3.20;;;2.73;;
11203;SDS011;5659;49.408;11.116;2023-12-20T04:54:04;4.27;;;2.60;;
11203;SDS011;5659;49.408;11.116;2023-12-20T04:56:30;2.90;;;2.47;;
11203;SDS011;5659;49.408;11.116;2023-12-20T04:58:56;3.33;;;2.90;;
11203;SDS011;5659;49.408;11.116;2023-12-20T05:01:22;3.87;;;2.73;;
11203;SDS011;5659;49.408;11.116;2023-12-20T05:03:47;4.80;;;2.60;;
11203;SDS011;5659;49.408;11.116;2023-12-20T05:06:13;4.23;;;2.63;;
11203;SDS011;5659;49.408;11.116;2023-12-20T05:08:39;3.40;;;3.10;;
11203;SDS011;5659;49.408;11.116;2023-12-20T05:11:05;4.27;;;2.63;;
11203;SDS011;5659;49.408;11.116;2023-12-20T05:13:32;2.67;;;2.47;;
11203;SDS011;5659;49.408;11.116;2023-12-20T05:15:58;2.57;;;2.37;;
11203;SDS011;5659;49.408;11.116;2023-12-20T05:18:23;3.87;;;2.67;;
11203;SDS011;5659;49.408;11.116;2023-12-20T05:20:50;2.70;;;2.27;;
11203;SDS011;5659;49.408;11.116;2023-12-20T05:23:16;2.93;;;2.50;;
11203;SDS011;5659;49.408;11.116;2023-12-20T05:25:42;2.37;;;2.00;;
11203;SDS011;5659;49.408;11.116;2023-12-20T05:28:08;2.70;;;2.30;;
11203;SDS011;5659;49.408;11.116;2023-12-20T05:30:34;4.30;;;2.30;;
11203;SDS011;5659;49.408;11.116;2023-12-20T05:33:00;2.80;;;2.27;;
11203;SDS011;5659;49.408;11.116;2023-12-20T05:35:26;5.03;;;2.43;;
11203;SDS011;5659;49.408;11.116;2023-12-20T05:37:52;2.00;;;1.90;;
11203;SDS011;5659;49.408;11.116;2023-12-20T05:40:18;3.50;;;2.50;;
11203;SDS011;5659;49.408;11.116;2023-12-20T05:42:44;3.03;;;2.40;;
11203;SDS011;5659;49.408;11.116;2023-12-20T05:45:10;2.50;;;2.30;;
11203;SDS011;5659;49.408;11.116;2023-12-20T05:47:36;2.47;;;2.27;;
11203;SDS011;5659;49.408;11.116;2023-12-20T05:50:02;2.77;;;2.50;;
11203;SDS011;5659;49.408;11.116;2023-12-20T05:52:29;3.00;;;2.70;;
11203;SDS011;5659;49.408;11.116;2023-12-20T05:54:55;2.63;;;2.43;;
11203;SDS011;5659;49.408;11.116;2023-12-20T05:57:22;2.97;;;2.40;;
11203;SDS011;5659;49.408;11.116;2023-12-20T05:59:48;4.53;;;2.67;;
11203;SDS011;5659;49.408;11.116;2023-12-20T06:02:14;4.87;;;3.00;;
11203;SDS011;5659;49.408;11.116;2023-12-20T06:04:43;3.30;;;3.00;;
11203;SDS011;5659;49.408;11.116;2023-12-20T06:07:13;8.80;;;3.50;;
11203;SDS011;5659;49.408;11.116;2023-12-20T06:09:39;3.27;;;2.97;;
11203;SDS011;5659;49.408;11.116;2023-12-20T06:12:05;4.83;;;3.40;;
11203;SDS011;5659;49.408;11.116;2023-12-20T06:14:31;3.20;;;2.90;;
11203;SDS011;5659;49.408;11.116;2023-12-20T06:16:57;3.80;;;3.20;;
11203;SDS011;5659;49.408;11.116;2023-12-20T06:19:23;3.30;;;3.00;;
11203;SDS011;5659;49.408;11.116;2023-12-20T06:21:49;3.50;;;3.03;;
11203;SDS011;5659;49.408;11.116;2023-12-20T06:24:15;3.90;;;3.50;;
11203;SDS011;5659;49.408;11.116;2023-12-20T06:26:41;4.57;;;3.17;;
11203;SDS011;5659;49.408;11.116;2023-12-20T06:29:07;3.87;;;3.13;;
11203;SDS011;5659;49.408;11.116;2023-12-20T06:31:33;5.40;;;3.30;;
11203;SDS011;5659;49.408;11.116;2023-12-20T06:33:59;3.20;;;2.90;;
11203;SDS011;5659;49.408;11.116;2023-12-20T06:36:25;4.90;;;3.30;;
11203;SDS011;5659;49.408;11.116;2023-12-20T06:38:52;3.93;;;3.53;;
11203;SDS011;5659;49.408;11.116;2023-12-20T06:41:18;4.30;;;3.90;;
11203;SDS011;5659;49.408;11.116;2023-12-20T06:43:44;3.57;;;3.27;;
11203;SDS011;5659;49.408;11.116;2023-12-20T06:46:10;4.47;;;3.70;;
11203;SDS011;5659;49.408;11.116;2023-12-20T06:48:38;4.00;;;3.60;;
11203;SDS011;5659;49.408;11.116;2023-12-20T06:51:05;5.60;;;3.40;;
11203;SDS011;5659;49.408;11.116;2023-12-20T06:53:31;7.93;;;3.70;;
11203;SDS011;5659;49.408;11.116;2023-12-20T06:55:57;6.63;;;3.77;;
11203;SDS011;5659;49.408;11.116;2023-12-20T06:58:23;4.93;;;4.20;;
11203;SDS011;5659;49.408;11.116;2023-12-20T07:00:50;4.93;;;3.90;;
11203;SDS011;5659;49.408;11.116;2023-12-20T07:03:16;6.33;;;4.10;;
11203;SDS011;5659;49.408;11.116;2023-12-20T07:05:43;11.03;;;4.20;;
11203;SDS011;5659;49.408;11.116;2023-12-20T07:08:09;4.33;;;3.80;;
11203;SDS011;5659;49.408;11.116;2023-12-20T07:10:35;4.87;;;4.43;;
11203;SDS011;5659;49.408;11.116;2023-12-20T07:13:02;5.30;;;4.80;;
11203;SDS011;5659;49.408;11.116;2023-12-20T07:15:28;8.43;;;4.47;;
11203;SDS011;5659;49.408;11.116;2023-12-20T07:17:54;5.87;;;5.27;;
11203;SDS011;5659;49.408;11.116;2023-12-20T07:20:20;4.90;;;4.33;;
11203;SDS011;5659;49.408;11.116;2023-12-20T07:22:46;9.43;;;4.77;;
11203;SDS011;5659;49.408;11.116;2023-12-20T07:25:12;6.10;;;5.43;;
11203;SDS011;5659;49.408;11.116;2023-12-20T07:27:38;5.93;;;5.00;;
11203;SDS011;5659;49.408;11.116;2023-12-20T07:30:04;9.87;;;5.60;;
11203;SDS011;5659;49.408;11.116;2023-12-20T07:32:30;6.87;;;5.03;;
11203;SDS011;5659;49.408;11.116;2023-12-20T07:34:57;7.10;;;5.63;;
11203;SDS011;5659;49.408;11.116;2023-12-20T07:37:23;6.03;;;5.43;;
11203;SDS011;5659;49.408;11.116;2023-12-20T07:39:49;6.27;;;5.67;;
11203;SDS011;5659;49.408;11.116;2023-12-20T07:42:15;6.87;;;5.67;;
11203;SDS011;5659;49.408;11.116;2023-12-20T07:44:41;6.53;;;5.93;;
11203;SDS011;5659;49.408;11.116;2023-12-20T07:47:06;6.53;;;5.93;;
11203;SDS011;5659;49.408;11.116;2023-12-20T07:49:33;6.73;;;6.13;;
11203;SDS011;5659;49.408;11.116;2023-12-20T07:51:59;8.20;;;6.37;;
11203;SDS011;5659;49.408;11.116;2023-12-20T07:54:25;11.03;;;6.70;;
11203;SDS011;5659;49.408;11.116;2023-12-20T07:56:50;10.13;;;6.53;;
11203;SDS011;5659;49.408;11.116;2023-12-20T07:59:16;8.03;;;7.10;;
11203;SDS011;5659;49.408;11.116;2023-12-20T08:01:42;10.73;;;7.20;;
11203;SDS011;5659;49.408;11.116;2023-12-20T08:04:08;9.40;;;7.17;;
11203;SDS011;5659;49.408;11.116;2023-12-20T08:06:35;12.73;;;7.60;;
11203;SDS011;5659;49.408;11.116;2023-12-20T08:09:01;9.83;;;7.27;;
11203;SDS011;5659;49.408;11.116;2023-12-20T08:11:27;8.80;;;6.93;;
11203;SDS011;5659;49.408;11.116;2023-12-20T08:13:53;9.27;;;7.17;;
11203;SDS011;5659;49.408;11.116;2023-12-20T08:16:19;11.27;;;6.70;;
11203;SDS011;5659;49.408;11.116;2023-12-20T08:18:45;7.77;;;6.67;;
11203;SDS011;5659;49.408;11.116;2023-12-20T08:21:11;8.43;;;7.57;;
11203;SDS011;5659;49.408;11.116;2023-12-20T08:23:37;9.77;;;7.20;;
11203;SDS011;5659;49.408;11.116;2023-12-20T08:26:06;7.70;;;6.90;;
11203;SDS011;5659;49.408;11.116;2023-12-20T08:28:32;8.23;;;7.03;;
11203;SDS011;5659;49.408;11.116;2023-12-20T08:30:59;8.87;;;5.90;;
11203;SDS011;5659;49.408;11.116;2023-12-20T08:33:25;6.87;;;6.17;;
11203;SDS011;5659;49.408;11.116;2023-12-20T08:35:51;7.03;;;6.33;;
11203;SDS011;5659;49.408;11.116;2023-12-20T08:38:17;7.87;;;6.40;;
11203;SDS011;5659;49.408;11.116;2023-12-20T08:40:43;8.27;;;5.67;;
11203;SDS011;5659;49.408;11.116;2023-12-20T08:43:09;6.27;;;5.63;;
11203;SDS011;5659;49.408;11.116;2023-12-20T08:45:35;7.43;;;6.10;;
11203;SDS011;5659;49.408;11.116;2023-12-20T08:48:01;9.10;;;6.33;;
11203;SDS011;5659;49.408;11.116;2023-12-20T08:50:28;7.87;;;6.03;;
11203;SDS011;5659;49.408;11.116;2023-12-20T08:52:54;7.70;;;5.93;;
11203;SDS011;5659;49.408;11.116;2023-12-20T08:55:20;8.40;;;6.40;;
11203;SDS011;5659;49.408;11.116;2023-12-20T08:57:46;7.07;;;5.10;;
11203;SDS011;5659;49.408;11.116;2023-12-20T09:00:12;5.90;;;5.13;;
11203;SDS011;5659;49.408;11.116;2023-12-20T09:02:38;5.70;;;4.70;;
11203;SDS011;5659;49.408;11.116;2023-12-20T09:05:04;6.17;;;5.40;;
11203;SDS011;5659;49.408;11.116;2023-12-20T09:07:30;11.87;;;5.33;;
11203;SDS011;5659;49.408;11.116;2023-12-20T09:09:57;5.93;;;5.03;;
11203;SDS011;5659;49.408;11.116;2023-12-20T09:12:23;5.83;;;5.10;;
11203;SDS011;5659;49.408;11.116;2023-12-20T09:14:49;9.20;;;4.67;;
11203;SDS011;5659;49.408;11.116;2023-12-20T09:17:16;6.07;;;4.63;;
11203;SDS011;5659;49.408;11.116;2023-12-20T09:19:42;7.93;;;4.30;;
11203;SDS011;5659;49.408;11.116;2023-12-20T09:22:11;7.50;;;4.50;;
11203;SDS011;5659;49.408;11.116;2023-12-20T09:24:38;6.67;;;4.07;;
11203;SDS011;5659;49.408;11.116;2023-12-20T09:27:04;6.30;;;4.50;;
11203;SDS011;5659;49.408;11.116;2023-12-20T09:29:30;4.77;;;4.27;;
11203;SDS011;5659;49.408;11.116;2023-12-20T09:31:56;6.80;;;6.10;;
11203;SDS011;5659;49.408;11.116;2023-12-20T09:34:23;10.67;;;8.20;;
11203;SDS011;5659;49.408;11.116;2023-12-20T09:36:49;14.03;;;8.10;;
11203;SDS011;5659;49.408;11.116;2023-12-20T09:39:18;11.93;;;8.33;;
11203;SDS011;5659;49.408;11.116;2023-12-20T09:41:45;8.27;;;6.70;;
11203;SDS011;5659;49.408;11.116;2023-12-20T09:44:15;6.97;;;4.37;;
11203;SDS011;5659;49.408;11.116;2023-12-20T09:46:43;4.17;;;2.70;;
11203;SDS011;5659;49.408;11.116;2023-12-20T09:49:09;4.17;;;2.27;;
11203;SDS011;5659;49.408;11.116;2023-12-20T09:51:36;5.00;;;1.83;;
11203;SDS011;5659;49.408;11.116;2023-12-20T09:54:05;4.43;;;2.00;;
11203;SDS011;5659;49.408;11.116;2023-12-20T09:56:31;5.35;;;1.70;;
11203;SDS011;5659;49.408;11.116;2023-12-20T09:58:57;2.92;;;1.70;;
11203;SDS011;5659;49.408;11.116;2023-12-20T10:01:26;2.45;;;1.67;;
11203;SDS011;5659;49.408;11.116;2023-12-20T10:03:54;2.03;;;1.33;;
11203;SDS011;5659;49.408;11.116;2023-12-20T10:06:20;3.83;;;1.70;;
11203;SDS011;5659;49.408;11.116;2023-12-20T10:08:46;5.37;;;1.70;;
11203;SDS011;5659;49.408;11.116;2023-12-20T10:11:12;3.03;;;1.70;;
11203;SDS011;5659;49.408;11.116;2023-12-20T10:13:39;2.30;;;1.73;;
11203;SDS011;5659;49.408;11.116;2023-12-20T10:16:09;4.83;;;1.70;;
11203;SDS011;5659;49.408;11.116;2023-12-20T10:18:35;4.07;;;1.83;;
11203;SDS011;5659;49.408;11.116;2023-12-20T10:21:01;9.73;;;2.00;;
11203;SDS011;5659;49.408;11.116;2023-12-20T10:23:28;3.67;;;2.00;;
11203;SDS011;5659;49.408;11.116;2023-12-20T10:26:00;8.03;;;2.03;;
11203;SDS011;5659;49.408;11.116;2023-12-20T10:28:26;5.40;;;2.50;;
11203;SDS011;5659;49.408;11.116;2023-12-20T10:30:53;8.77;;;2.30;;
11203;SDS011;5659;49.408;11.116;2023-12-20T10:33:25;7.43;;;2.00;;
11203;SDS011;5659;49.408;11.116;2023-12-20T10:35:52;6.03;;;2.00;;
11203;SDS011;5659;49.408;11.116;2023-12-20T10:38:19;5.93;;;2.13;;
11203;SDS011;5659;49.408;11.116;2023-12-20T10:40:45;7.27;;;2.53;;
11203;SDS011;5659;49.408;11.116;2023-12-20T10:43:12;6.83;;;2.50;;
11203;SDS011;5659;49.408;11.116;2023-12-20T10:45:41;4.53;;;2.40;;
11203;SDS011;5659;49.408;11.116;2023-12-20T10:48:11;7.90;;;2.30;;
11203;SDS011;5659;49.408;11.116;2023-12-20T10:50:37;4.90;;;2.20;;
11203;SDS011;5659;49.408;11.116;2023-12-20T10:53:03;9.87;;;2.63;;
11203;SDS011;5659;49.408;11.116;2023-12-20T10:55:29;5.93;;;1.90;;
11203;SDS011;5659;49.408;11.116;2023-12-20T10:58:00;7.77;;;2.27;;
11203;SDS011;5659;49.408;11.116;2023-12-20T11:00:26;5.03;;;2.10;;
11203;SDS011;5659;49.408;11.116;2023-12-20T11:02:53;4.30;;;2.00;;
11203;SDS011;5659;49.408;11.116;2023-12-20T11:07:50;7.50;;;2.53;;
11203;SDS011;5659;49.408;11.116;2023-12-20T11:10:21;11.17;;;2.80;;
11203;SDS011;5659;49.408;11.116;2023-12-20T11:12:50;7.43;;;2.60;;
11203;SDS011;5659;49.408;11.116;2023-12-20T11:15:18;8.10;;;1.97;;
11203;SDS011;5659;49.408;11.116;2023-12-20T11:17:44;5.80;;;2.60;;
11203;SDS011;5659;49.408;11.116;2023-12-20T11:20:13;4.90;;;1.97;;
11203;SDS011;5659;49.408;11.116;2023-12-20T11:22:39;6.33;;;2.13;;
11203;SDS011;5659;49.408;11.116;2023-12-20T11:25:10;4.93;;;2.40;;
11203;SDS011;5659;49.408;11.116;2023-12-20T11:27:36;8.43;;;2.57;;
11203;SDS011;5659;49.408;11.116;2023-12-20T11:30:06;9.20;;;2.43;;
11203;SDS011;5659;49.408;11.116;2023-12-20T11:32:33;8.67;;;2.30;;
11203;SDS011;5659;49.408;11.116;2023-12-20T11:35:01;6.87;;;2.43;;
11203;SDS011;5659;49.408;11.116;2023-12-20T11:37:31;6.13;;;2.00;;
11203;SDS011;5659;49.408;11.116;2023-12-20T11:40:04;6.83;;;2.03;;
11203;SDS011;5659;49.408;11.116;2023-12-20T11:42:37;7.10;;;2.77;;
11203;SDS011;5659;49.408;11.116;2023-12-20T11:45:04;6.83;;;2.33;;
11203;SDS011;5659;49.408;11.116;2023-12-20T11:47:30;5.27;;;2.50;;
11203;SDS011;5659;49.408;11.116;2023-12-20T11:49:57;6.50;;;2.40;;
11203;SDS011;5659;49.408;11.116;2023-12-20T11:52:25;9.00;;;2.77;;
11203;SDS011;5659;49.408;11.116;2023-12-20T11:54:51;7.30;;;3.03;;
11203;SDS011;5659;49.408;11.116;2023-12-20T11:57:17;7.37;;;2.70;;
11203;SDS011;5659;49.408;11.116;2023-12-20T11:59:43;6.17;;;2.47;;
11203;SDS011;5659;49.408;11.116;2023-12-20T12:02:11;10.37;;;2.80;;
11203;SDS011;5659;49.408;11.116;2023-12-20T12:04:37;6.83;;;2.60;;
11203;SDS011;5659;49.408;11.116;2023-12-20T12:07:03;9.37;;;2.70;;
11203;SDS011;5659;49.408;11.116;2023-12-20T12:09:29;6.43;;;2.90;;
11203;SDS011;5659;49.408;11.116;2023-12-20T12:11:55;6.57;;;2.70;;
11203;SDS011;5659;49.408;11.116;2023-12-20T12:14:21;8.63;;;3.07;;
11203;SDS011;5659;49.408;11.116;2023-12-20T12:16:47;9.37;;;3.27;;
11203;SDS011;5659;49.408;11.116;2023-12-20T12:19:21;6.37;;;2.77;;
11203;SDS011;5659;49.408;11.116;2023-12-20T12:21:47;10.03;;;3.00;;
11203;SDS011;5659;49.408;11.116;2023-12-20T12:24:13;8.80;;;3.20;;
11203;SDS011;5659;49.408;11.116;2023-12-20T12:26:39;8.90;;;2.97;;
11203;SDS011;5659;49.408;11.116;2023-12-20T12:29:08;7.77;;;2.70;;
11203;SDS011;5659;49.408;11.116;2023-12-20T12:31:34;6.83;;;2.60;;
11203;SDS011;5659;49.408;11.116;2023-12-20T12:34:01;6.20;;;2.70;;
11203;SDS011;5659;49.408;11.116;2023-12-20T12:36:27;9.40;;;2.93;;
11203;SDS011;5659;49.408;11.116;2023-12-20T12:38:56;6.30;;;2.90;;
11203;SDS011;5659;49.408;11.116;2023-12-20T12:41:22;9.90;;;2.60;;
11203;SDS011;5659;49.408;11.116;2023-12-20T12:43:48;5.10;;;2.47;;
11203;SDS011;5659;49.408;11.116;2023-12-20T12:46:14;5.80;;;2.67;;
11203;SDS011;5659;49.408;11.116;2023-12-20T12:48:40;6.13;;;2.73;;
11203;SDS011;5659;49.408;11.116;2023-12-20T12:51:06;6.57;;;2.63;;
11203;SDS011;5659;49.408;11.116;2023-12-20T12:53:37;4.53;;;2.43;;
11203;SDS011;5659;49.408;11.116;2023-12-20T12:56:03;5.80;;;2.70;;
11203;SDS011;5659;49.408;11.116;2023-12-20T12:58:29;6.30;;;2.87;;
11203;SDS011;5659;49.408;11.116;2023-12-20T13:00:55;6.27;;;2.80;;
11203;SDS011;5659;49.408;11.116;2023-12-20T13:03:21;8.43;;;2.83;;
11203;SDS011;5659;49.408;11.116;2023-12-20T13:05:47;5.50;;;2.70;;
11203;SDS011;5659;49.408;11.116;2023-12-20T13:08:13;5.97;;;2.60;;
11203;SDS011;5659;49.408;11.116;2023-12-20T13:10:39;6.10;;;2.70;;
11203;SDS011;5659;49.408;11.116;2023-12-20T13:13:05;5.90;;;2.53;;
11203;SDS011;5659;49.408;11.116;2023-12-20T13:15:31;10.13;;;2.80;;
11203;SDS011;5659;49.408;11.116;2023-12-20T13:17:57;6.97;;;3.47;;
11203;SDS011;5659;49.408;11.116;2023-12-20T13:20:23;9.03;;;2.77;;
11203;SDS011;5659;49.408;11.116;2023-12-20T13:22:49;7.57;;;2.60;;
11203;SDS011;5659;49.408;11.116;2023-12-20T13:25:15;6.37;;;2.47;;
11203;SDS011;5659;49.408;11.116;2023-12-20T13:27:41;6.43;;;2.60;;
11203;SDS011;5659;49.408;11.116;2023-12-20T13:30:07;7.93;;;2.70;;
11203;SDS011;5659;49.408;11.116;2023-12-20T13:32:33;5.30;;;3.13;;
11203;SDS011;5659;49.408;11.116;2023-12-20T13:34:59;6.57;;;2.40;;
11203;SDS011;5659;49.408;11.116;2023-12-20T13:37:25;6.43;;;2.40;;
11203;SDS011;5659;49.408;11.116;2023-12-20T13:39:51;8.83;;;2.60;;
11203;SDS011;5659;49.408;11.116;2023-12-20T13:42:17;5.60;;;2.67;;
11203;SDS011;5659;49.408;11.116;2023-12-20T13:44:43;6.80;;;2.43;;
11203;SDS011;5659;49.408;11.116;2023-12-20T13:47:09;5.83;;;2.43;;
11203;SDS011;5659;49.408;11.116;2023-12-20T13:49:35;5.67;;;2.00;;
11203;SDS011;5659;49.408;11.116;2023-12-20T13:52:01;6.87;;;2.50;;
11203;SDS011;5659;49.408;11.116;2023-12-20T13:54:29;6.57;;;2.60;;
11203;SDS011;5659;49.408;11.116;2023-12-20T13:56:54;5.47;;;2.40;;
11203;SDS011;5659;49.408;11.116;2023-12-20T13:59:22;7.77;;;2.80;;
11203;SDS011;5659;49.408;11.116;2023-12-20T14:01:48;7.27;;;2.40;;
11203;SDS011;5659;49.408;11.116;2023-12-20T14:04:15;9.37;;;2.63;;
11203;SDS011;5659;49.408;11.116;2023-12-20T14:06:41;8.30;;;2.83;;
11203;SDS011;5659;49.408;11.116;2023-12-20T14:09:07;4.73;;;2.63;;
11203;SDS011;5659;49.408;11.116;2023-12-20T14:11:33;9.30;;;3.40;;
11203;SDS011;5659;49.408;11.116;2023-12-20T14:13:59;5.63;;;2.73;;
11203;SDS011;5659;49.408;11.116;2023-12-20T14:16:26;11.37;;;3.50;;
11203;SDS011;5659;49.408;11.116;2023-12-20T14:18:52;8.30;;;3.00;;
11203;SDS011;5659;49.408;11.116;2023-12-20T14:21:22;6.53;;;2.77;;
11203;SDS011;5659;49.408;11.116;2023-12-20T14:23:48;6.93;;;2.67;;
11203;SDS011;5659;49.408;11.116;2023-12-20T14:26:14;7.07;;;2.40;;
11203;SDS011;5659;49.408;11.116;2023-12-20T14:28:41;5.93;;;3.23;;
11203;SDS011;5659;49.408;11.116;2023-12-20T14:31:07;5.03;;;2.53;;
11203;SDS011;5659;49.408;11.116;2023-12-20T14:33:35;5.10;;;2.43;;
11203;SDS011;5659;49.408;11.116;2023-12-20T14:36:02;8.00;;;3.03;;
11203;SDS011;5659;49.408;11.116;2023-12-20T14:38:30;5.90;;;2.80;;
11203;SDS011;5659;49.408;11.116;2023-12-20T14:40:56;4.00;;;2.60;;
11203;SDS011;5659;49.408;11.116;2023-12-20T14:43:22;7.57;;;2.87;;